createdAt,value
2022-10-11T00:00:52.580Z,9.90
2022-10-11T00:03:19.793Z,10.10
2022-10-11T00:05:46.930Z,9.90
2022-10-11T00:08:14.137Z,9.10
2022-10-11T00:10:41.248Z,9.60
2022-10-11T00:13:08.408Z,10.00
2022-10-11T00:15:35.474Z,8.70
2022-10-11T00:18:05.431Z,8.87
2022-10-11T00:20:32.717Z,8.10
2022-10-11T00:22:59.786Z,8.80
2022-10-11T00:25:26.873Z,8.97
2022-10-11T00:27:53.911Z,8.80
2022-10-11T00:30:21.026Z,7.30
2022-10-11T00:32:48.051Z,8.63
2022-10-11T00:35:15.091Z,7.57
2022-10-11T00:37:42.127Z,7.10
2022-10-11T00:40:10.350Z,8.30
2022-10-11T00:42:37.489Z,7.80
2022-10-11T00:45:23.186Z,8.60
2022-10-11T00:47:50.272Z,7.90
2022-10-11T00:50:17.302Z,7.60
2022-10-11T00:52:44.366Z,7.67
2022-10-11T00:55:15.212Z,7.97
2022-10-11T00:57:42.693Z,7.20
2022-10-11T01:00:10.671Z,7.50
2022-10-11T01:02:37.750Z,8.60
2022-10-11T01:05:28.118Z,7.93
2022-10-11T01:07:52.880Z,8.00
2022-10-11T01:10:19.950Z,8.23
2022-10-11T01:13:10.033Z,6.80
2022-10-11T01:15:47.253Z,8.47
2022-10-11T01:18:22.155Z,8.30
2022-10-11T01:20:52.090Z,9.13
2022-10-11T01:23:25.127Z,8.37
2022-10-11T01:26:10.668Z,7.13
2022-10-11T01:28:50.377Z,8.50
2022-10-11T01:31:23.791Z,7.47
2022-10-11T01:33:59.686Z,7.00
2022-10-11T01:36:34.367Z,7.60
2022-10-11T01:39:10.131Z,8.67
2022-10-11T01:41:47.198Z,6.73
2022-10-11T01:44:14.299Z,7.43
2022-10-11T01:46:41.788Z,8.30
2022-10-11T01:49:08.950Z,8.30
2022-10-11T01:51:42.965Z,7.93
2022-10-11T01:54:16.581Z,6.60
2022-10-11T01:56:47.554Z,6.40
2022-10-11T01:59:20.947Z,6.67
2022-10-11T02:02:06.835Z,7.57
2022-10-11T02:04:35.044Z,7.73
2022-10-11T02:07:06.230Z,8.10
2022-10-11T02:09:43.920Z,8.20
2022-10-11T02:12:11.587Z,6.80
2022-10-11T02:14:42.527Z,7.67
2022-10-11T02:17:11.485Z,7.93
2022-10-11T02:23:27.775Z,8.97
2022-10-11T02:25:54.914Z,9.27
2022-10-11T02:28:22.936Z,8.50
2022-10-11T02:30:50.495Z,8.60
2022-10-11T02:33:18.862Z,7.73
2022-10-11T02:35:46.794Z,7.50
2022-10-11T02:38:21.578Z,8.57
2022-10-11T02:40:49.733Z,8.73
2022-10-11T02:43:23.974Z,9.23
2022-10-11T02:45:55.341Z,8.30
2022-10-11T02:48:23.504Z,9.63
2022-10-11T02:50:50.734Z,8.33
2022-10-11T02:53:17.789Z,8.03
2022-10-11T02:55:44.942Z,8.23
2022-10-11T02:58:12.130Z,7.37
2022-10-11T03:00:39.256Z,7.10
2022-10-11T03:03:06.305Z,7.20
2022-10-11T03:05:40.276Z,8.43
2022-10-11T03:08:08.052Z,7.50
2022-10-11T03:10:35.652Z,7.93
2022-10-11T03:13:03.015Z,8.63
2022-10-11T03:15:30.240Z,6.70
2022-10-11T03:17:57.454Z,7.87
2022-10-11T03:20:24.972Z,8.00
2022-10-11T03:22:52.096Z,8.90
2022-10-11T03:25:19.129Z,8.20
2022-10-11T03:27:46.394Z,8.10
2022-10-11T03:30:17.886Z,7.80
2022-10-11T03:32:45.378Z,6.87
2022-10-11T03:35:12.536Z,7.47
2022-10-11T03:37:39.618Z,7.53
2022-10-11T03:40:08.328Z,7.60
2022-10-11T03:42:35.665Z,7.93
2022-10-11T03:45:05.010Z,7.87
2022-10-11T03:47:32.584Z,7.50
2022-10-11T03:49:59.664Z,8.10
2022-10-11T03:52:26.765Z,7.50
2022-10-11T03:54:53.877Z,8.33
2022-10-11T03:57:21.008Z,8.30
2022-10-11T03:59:48.354Z,7.67
2022-10-11T04:02:15.638Z,8.07
2022-10-11T04:04:42.704Z,9.47
2022-10-11T04:07:09.790Z,9.17
2022-10-11T04:09:36.830Z,9.80
2022-10-11T04:12:04.055Z,10.40
2022-10-11T04:14:31.108Z,9.27
2022-10-11T04:17:00.359Z,9.67
2022-10-11T04:19:27.968Z,9.47
2022-10-11T04:21:55.158Z,8.77
2022-10-11T04:24:22.262Z,9.10
2022-10-11T04:26:49.332Z,9.37
2022-10-11T04:29:16.542Z,8.87
2022-10-11T04:31:43.641Z,8.60
2022-10-11T04:34:10.692Z,8.40
2022-10-11T04:36:39.088Z,7.90
2022-10-11T04:39:06.797Z,8.63
2022-10-11T04:41:33.956Z,8.60
2022-10-11T04:44:01.318Z,7.80
2022-10-11T04:46:28.572Z,8.03
2022-10-11T04:48:55.701Z,9.20
2022-10-11T04:51:22.896Z,9.60
2022-10-11T04:53:50.102Z,9.33
2022-10-11T04:56:18.582Z,9.20
2022-10-11T04:58:48.050Z,8.30
2022-10-11T05:01:15.558Z,9.07
2022-10-11T05:03:42.680Z,8.90
2022-10-11T05:06:10.175Z,8.33
2022-10-11T05:08:37.479Z,8.30
2022-10-11T05:11:05.674Z,9.53
2022-10-11T05:13:32.947Z,7.63
2022-10-11T05:16:00.237Z,8.23
2022-10-11T05:18:27.430Z,7.63
2022-10-11T05:21:07.301Z,9.03
2022-10-11T05:23:34.650Z,29.77
2022-10-11T05:26:02.034Z,22.67
2022-10-11T05:28:29.435Z,15.37
2022-10-11T05:30:56.604Z,17.67
2022-10-11T05:33:23.842Z,14.53
2022-10-11T05:35:51.054Z,11.60
2022-10-11T05:38:18.306Z,9.80
2022-10-11T05:40:45.484Z,9.20
2022-10-11T05:43:12.744Z,8.60
2022-10-11T05:45:40.124Z,8.43
2022-10-11T05:48:07.833Z,7.27
2022-10-11T05:50:35.015Z,7.37
2022-10-11T05:53:02.207Z,8.57
2022-10-11T05:55:29.304Z,8.27
2022-10-11T05:57:57.035Z,8.53
2022-10-11T06:00:24.424Z,8.03
2022-10-11T06:02:51.547Z,7.43
2022-10-11T06:05:18.792Z,7.63
2022-10-11T06:07:45.997Z,8.00
2022-10-11T06:10:13.311Z,9.10
2022-10-11T06:12:40.552Z,8.57
2022-10-11T06:15:08.803Z,9.97
2022-10-11T06:17:35.944Z,10.70
2022-10-11T06:20:04.011Z,11.87
2022-10-11T06:22:31.149Z,11.10
2022-10-11T06:24:58.204Z,9.90
2022-10-11T06:27:25.293Z,9.67
2022-10-11T06:29:52.336Z,8.63
2022-10-11T06:32:19.400Z,9.83
2022-10-11T06:34:46.611Z,9.50
2022-10-11T06:37:13.886Z,8.23
2022-10-11T06:39:41.024Z,8.67
2022-10-11T06:42:08.195Z,8.70
2022-10-11T06:44:35.253Z,9.20
2022-10-11T06:47:02.369Z,9.23
2022-10-11T06:49:29.439Z,8.23
2022-10-11T06:51:56.589Z,9.53
2022-10-11T06:54:23.750Z,8.70
2022-10-11T06:56:50.905Z,8.03
2022-10-11T06:59:18.064Z,7.90
2022-10-11T07:01:45.183Z,6.90
2022-10-11T07:04:12.349Z,8.63
2022-10-11T07:06:40.098Z,7.93
2022-10-11T07:09:07.490Z,8.33
2022-10-11T07:11:34.709Z,7.97
2022-10-11T07:14:02.743Z,8.80
2022-10-11T07:16:29.772Z,7.73
2022-10-11T07:19:00.442Z,7.70
2022-10-11T07:21:28.349Z,8.37
2022-10-11T07:23:55.396Z,8.10
2022-10-11T07:26:22.446Z,8.40
2022-10-11T07:28:49.535Z,7.43
2022-10-11T07:31:18.125Z,8.70
2022-10-11T07:33:45.155Z,8.20
2022-10-11T07:36:12.231Z,8.27
2022-10-11T07:38:40.473Z,7.40
2022-10-11T07:41:07.754Z,8.80
2022-10-11T07:43:34.808Z,8.53
2022-10-11T07:46:04.592Z,8.40
2022-10-11T07:48:32.540Z,8.80
2022-10-11T07:51:08.989Z,9.00
2022-10-11T07:53:42.502Z,8.80
2022-10-11T07:56:10.267Z,9.40
2022-10-11T07:58:37.372Z,10.00
2022-10-11T08:01:04.723Z,10.17
2022-10-11T08:03:31.852Z,10.17
2022-10-11T08:06:02.697Z,10.60
2022-10-11T08:08:31.070Z,12.77
2022-10-11T08:10:58.510Z,9.60
2022-10-11T08:13:25.687Z,10.57
2022-10-11T08:15:52.768Z,9.57
2022-10-11T08:18:20.083Z,10.33
2022-10-11T08:20:47.330Z,9.60
2022-10-11T08:23:14.460Z,9.67
2022-10-11T08:25:42.630Z,10.53
2022-10-11T08:28:10.230Z,9.97
2022-10-11T08:30:37.425Z,9.67
2022-10-11T08:33:08.470Z,9.47
2022-10-11T08:35:36.729Z,9.37
2022-10-11T08:38:03.866Z,9.77
2022-10-11T08:40:35.144Z,9.97
2022-10-11T08:43:04.055Z,9.67
2022-10-11T08:45:43.403Z,10.07
2022-10-11T08:48:20.853Z,9.17
2022-10-11T08:50:48.452Z,8.67
2022-10-11T08:53:27.802Z,7.70
2022-10-11T08:55:55.172Z,8.73
2022-10-11T08:58:23.379Z,7.90
2022-10-11T09:00:51.323Z,8.60
2022-10-11T09:03:21.481Z,9.03
2022-10-11T09:06:11.734Z,8.20
2022-10-11T09:08:38.867Z,8.20
2022-10-11T09:11:11.603Z,7.57
2022-10-11T09:13:42.237Z,7.63
2022-10-11T09:16:15.438Z,6.60
2022-10-11T09:18:54.693Z,7.30
2022-10-11T09:21:36.773Z,7.83
2022-10-11T09:24:14.471Z,7.73
2022-10-11T09:26:48.678Z,7.93
2022-10-11T09:29:22.652Z,6.97
2022-10-11T09:31:50.122Z,7.90
2022-10-11T09:34:17.232Z,6.90
2022-10-11T09:36:54.090Z,8.00
2022-10-11T09:39:33.225Z,7.20
2022-10-11T09:42:07.713Z,7.40
2022-10-11T09:44:36.662Z,7.33
2022-10-11T09:47:03.789Z,7.10
2022-10-11T09:49:41.297Z,7.00
2022-10-11T09:52:12.178Z,7.03
2022-10-11T09:54:39.266Z,7.20
2022-10-11T09:57:06.925Z,6.57
2022-10-11T09:59:34.788Z,7.00
2022-10-11T10:02:14.404Z,6.00
2022-10-11T10:05:00.707Z,5.70
2022-10-11T10:07:28.175Z,4.93
2022-10-11T10:09:55.282Z,5.60
2022-10-11T10:12:23.164Z,6.30
2022-10-11T10:15:09.626Z,7.00
2022-10-11T10:17:36.793Z,8.00
2022-10-11T10:20:05.598Z,7.20
2022-10-11T10:22:33.352Z,7.43
2022-10-11T10:25:00.914Z,6.50
2022-10-11T10:27:28.746Z,6.30
2022-10-11T10:30:01.838Z,7.73
2022-10-11T10:32:30.278Z,7.23
2022-10-11T10:35:10.166Z,6.27
2022-10-11T10:37:39.848Z,7.20
2022-10-11T10:40:09.017Z,6.33
2022-10-11T10:42:36.081Z,6.60
2022-10-11T10:45:03.110Z,6.87
2022-10-11T10:47:32.886Z,8.47
2022-10-11T10:50:19.878Z,7.43
2022-10-11T10:52:48.416Z,6.90
2022-10-11T10:55:34.694Z,6.60
2022-10-11T10:58:18.477Z,7.13
2022-10-11T11:01:06.744Z,7.20
2022-10-11T11:03:52.770Z,8.80
2022-10-11T11:06:27.129Z,7.10
2022-10-11T11:09:16.294Z,8.40
2022-10-11T11:11:50.228Z,6.90
2022-10-11T11:14:26.412Z,7.10
2022-10-11T11:17:02.546Z,7.77
2022-10-11T11:19:35.543Z,6.83
2022-10-11T11:22:05.138Z,7.40
2022-10-11T11:24:38.702Z,7.90
2022-10-11T11:27:07.437Z,7.37
2022-10-11T11:29:44.585Z,6.57
2022-10-11T11:32:17.461Z,7.43
2022-10-11T11:34:48.516Z,6.57
2022-10-11T11:37:22.249Z,6.93
2022-10-11T11:39:49.796Z,6.80
2022-10-11T11:42:19.139Z,5.03
2022-10-11T11:44:50.268Z,4.50
2022-10-11T11:47:25.312Z,4.50
2022-10-11T11:49:59.584Z,4.77
2022-10-11T11:52:27.913Z,4.23
2022-10-11T11:54:54.957Z,3.20
2022-10-11T11:57:42.562Z,4.80
2022-10-11T12:00:12.945Z,3.70
2022-10-11T12:02:42.504Z,5.30
2022-10-11T12:05:10.245Z,3.33
2022-10-11T12:07:55.862Z,2.90
2022-10-11T12:10:29.302Z,3.13
2022-10-11T12:13:10.003Z,3.43
2022-10-11T12:15:37.101Z,4.17
2022-10-11T12:18:05.290Z,3.60
2022-10-11T12:20:32.986Z,3.40
2022-10-11T12:23:00.430Z,3.73
2022-10-11T12:25:28.446Z,4.50
2022-10-11T12:27:55.994Z,3.67
2022-10-11T12:30:41.978Z,3.53
2022-10-11T12:33:16.556Z,3.03
2022-10-11T12:35:49.696Z,4.07
2022-10-11T12:38:33.834Z,3.30
2022-10-11T12:41:00.982Z,3.40
2022-10-11T12:43:29.373Z,3.23
2022-10-11T12:45:56.402Z,3.90
2022-10-11T12:48:31.966Z,3.60
2022-10-11T12:51:17.594Z,3.90
2022-10-11T12:53:48.149Z,3.40
2022-10-11T12:56:26.595Z,3.60
2022-10-11T12:59:01.356Z,3.97
2022-10-11T13:01:29.873Z,4.70
2022-10-11T13:04:00.901Z,4.20
2022-10-11T13:06:29.060Z,4.03
2022-10-11T13:09:02.051Z,4.67
2022-10-11T13:11:30.658Z,5.07
2022-10-11T13:13:58.644Z,4.90
2022-10-11T13:16:30.197Z,4.73
2022-10-11T13:19:00.474Z,5.60
2022-10-11T13:21:36.662Z,4.60
2022-10-11T13:24:04.977Z,6.03
2022-10-11T13:26:32.133Z,5.70
2022-10-11T13:29:00.321Z,5.50
2022-10-11T13:31:27.429Z,5.33
2022-10-11T13:33:55.488Z,7.90
2022-10-11T13:36:22.911Z,6.20
2022-10-11T13:39:01.961Z,7.20
2022-10-11T13:41:29.628Z,7.00
2022-10-11T13:44:00.103Z,7.60
2022-10-11T13:46:27.872Z,6.80
2022-10-11T13:49:01.640Z,7.30
2022-10-11T13:51:32.503Z,8.20
2022-10-11T13:54:02.434Z,7.27
2022-10-11T13:56:30.267Z,7.57
2022-10-11T13:58:57.326Z,6.70
2022-10-11T14:01:40.882Z,7.80
2022-10-11T14:04:08.944Z,9.77
2022-10-11T14:06:49.569Z,9.30
2022-10-11T14:09:20.665Z,10.30
2022-10-11T14:11:47.767Z,9.03
2022-10-11T14:14:33.355Z,9.10
2022-10-11T14:17:20.728Z,7.33
2022-10-11T14:19:48.259Z,7.50
2022-10-11T14:22:16.035Z,8.30
2022-10-11T14:24:43.695Z,7.57
2022-10-11T14:27:12.278Z,6.80
2022-10-11T14:29:55.598Z,7.07
2022-10-11T14:32:32.667Z,6.70
2022-10-11T14:34:59.749Z,7.27
2022-10-11T14:37:26.855Z,7.70
2022-10-11T14:39:53.883Z,6.93
2022-10-11T14:42:21.199Z,6.90
2022-10-11T14:44:48.290Z,5.67
2022-10-11T14:47:15.754Z,5.93
2022-10-11T14:49:42.899Z,5.97
2022-10-11T14:52:11.745Z,5.27
2022-10-11T14:54:38.887Z,5.30
2022-10-11T14:57:05.982Z,5.57
2022-10-11T14:59:34.541Z,5.10
2022-10-11T15:02:01.920Z,5.30
2022-10-11T15:04:29.144Z,6.23
2022-10-11T15:06:56.614Z,5.20
2022-10-11T15:09:23.725Z,5.57
2022-10-11T15:11:51.500Z,5.60
2022-10-11T15:14:18.788Z,5.60
2022-10-11T15:16:45.877Z,5.37
2022-10-11T15:19:17.072Z,4.83
2022-10-11T15:21:44.242Z,6.30
2022-10-11T15:24:11.354Z,6.57
2022-10-11T15:26:38.391Z,5.00
2022-10-11T15:29:05.661Z,5.27
2022-10-11T15:31:32.872Z,5.70
2022-10-11T15:34:01.790Z,5.40
2022-10-11T15:36:29.543Z,5.50
2022-10-11T15:38:56.634Z,5.70
2022-10-11T15:41:23.953Z,5.70
2022-10-11T15:43:51.114Z,5.33
2022-10-11T15:46:19.307Z,6.40
2022-10-11T15:48:46.495Z,6.50
2022-10-11T15:51:13.586Z,6.30
2022-10-11T15:53:40.627Z,7.20
2022-10-11T15:56:09.244Z,7.67
2022-10-11T15:58:40.093Z,6.30
2022-10-11T16:01:08.502Z,7.90
2022-10-11T16:03:36.037Z,6.77
2022-10-11T16:06:05.538Z,7.70
2022-10-11T16:08:33.335Z,9.20
2022-10-11T16:11:00.528Z,8.00
2022-10-11T16:13:27.549Z,7.93
2022-10-11T16:15:54.722Z,7.30
2022-10-11T16:18:22.393Z,9.10
2022-10-11T16:20:51.018Z,8.63
2022-10-11T16:23:18.158Z,8.67
2022-10-11T16:25:45.206Z,7.73
2022-10-11T16:28:12.749Z,7.80
2022-10-11T16:30:40.718Z,8.97
2022-10-11T16:33:07.919Z,10.90
2022-10-11T16:35:35.017Z,9.50
2022-10-11T16:38:02.223Z,9.50
2022-10-11T16:40:30.072Z,10.50
2022-10-11T16:42:57.274Z,8.90
2022-10-11T16:45:24.452Z,8.57
2022-10-11T16:47:51.550Z,7.87
2022-10-11T16:50:18.651Z,9.03
2022-10-11T16:52:45.742Z,8.73
2022-10-11T16:55:12.829Z,8.90
2022-10-11T16:57:39.937Z,8.07
2022-10-11T17:00:07.804Z,8.07
2022-10-11T17:02:35.050Z,8.47
2022-10-11T17:05:02.454Z,7.60
2022-10-11T17:07:29.818Z,8.33
2022-10-11T17:09:57.900Z,7.47
2022-10-11T17:12:25.051Z,6.87
2022-10-11T17:14:52.100Z,8.90
2022-10-11T17:17:19.427Z,8.47
2022-10-11T17:19:47.633Z,9.07
2022-10-11T17:22:15.623Z,9.30
2022-10-11T17:24:42.694Z,7.17
2022-10-11T17:27:09.986Z,8.07
2022-10-11T17:29:37.367Z,7.53
2022-10-11T17:32:04.561Z,8.87
2022-10-11T17:34:31.746Z,7.73
2022-10-11T17:36:58.968Z,9.50
2022-10-11T17:39:25.997Z,8.50
2022-10-11T17:41:53.277Z,9.10
2022-10-11T17:44:20.629Z,8.43
2022-10-11T17:46:47.785Z,9.60
2022-10-11T17:49:15.070Z,9.73
2022-10-11T17:51:42.424Z,8.30
2022-10-11T17:54:12.628Z,9.40
2022-10-11T17:56:40.088Z,8.03
2022-10-11T17:59:07.288Z,7.27
2022-10-11T18:01:34.668Z,7.80
2022-10-11T18:04:03.180Z,7.63
2022-10-11T18:06:31.218Z,7.50
2022-10-11T18:09:00.315Z,8.00
2022-10-11T18:11:27.382Z,9.00
2022-10-11T18:13:54.594Z,9.70
2022-10-11T18:16:22.629Z,9.93
2022-10-11T18:18:49.795Z,10.10
2022-10-11T18:21:18.367Z,10.17
2022-10-11T18:23:45.528Z,10.90
2022-10-11T18:26:16.343Z,10.13
2022-10-11T18:28:43.550Z,10.20
2022-10-11T18:31:13.569Z,11.00
2022-10-11T18:33:41.517Z,12.67
2022-10-11T18:36:09.348Z,10.97
2022-10-11T18:38:37.974Z,10.90
2022-10-11T18:41:06.360Z,10.47
2022-10-11T18:43:33.868Z,11.33
2022-10-11T18:46:07.493Z,11.40
2022-10-11T18:48:34.932Z,11.40
2022-10-11T18:51:05.972Z,10.53
2022-10-11T18:53:34.021Z,11.70
2022-10-11T18:56:01.471Z,10.63
2022-10-11T18:58:31.583Z,10.80
2022-10-11T19:01:25.198Z,11.70
2022-10-11T19:03:54.379Z,10.60
2022-10-11T19:06:22.438Z,12.90
2022-10-11T19:09:10.380Z,11.70
2022-10-11T19:11:37.846Z,12.40
2022-10-11T19:14:08.757Z,12.43
2022-10-11T19:16:37.921Z,11.87
2022-10-11T19:19:05.258Z,10.27
2022-10-11T19:21:32.307Z,12.37
2022-10-11T19:23:59.537Z,11.53
2022-10-11T19:26:29.043Z,12.33
2022-10-11T19:28:57.089Z,11.83
2022-10-11T19:31:24.241Z,11.17
2022-10-11T19:33:51.360Z,12.23
2022-10-11T19:36:18.558Z,10.27
2022-10-11T19:38:46.692Z,12.57
2022-10-11T19:41:13.855Z,11.07
2022-10-11T19:43:41.149Z,9.60
2022-10-11T19:46:09.404Z,10.80
2022-10-11T19:48:38.201Z,10.47
2022-10-11T19:51:05.703Z,11.70
2022-10-11T19:53:33.069Z,9.87
2022-10-11T19:56:02.713Z,9.63
2022-10-11T19:58:29.956Z,9.87
2022-10-11T20:01:17.693Z,11.03
2022-10-11T20:03:45.315Z,9.50
2022-10-11T20:06:12.507Z,10.00
2022-10-11T20:08:39.597Z,9.40
2022-10-11T20:11:07.454Z,9.70
2022-10-11T20:13:35.123Z,9.80
2022-10-11T20:16:07.122Z,10.50
2022-10-11T20:18:34.337Z,10.30
2022-10-11T20:21:03.354Z,13.53
2022-10-11T20:23:30.749Z,12.27
2022-10-11T20:25:58.901Z,13.87
2022-10-11T20:28:26.866Z,12.33
2022-10-11T20:30:54.151Z,12.50
2022-10-11T20:33:21.374Z,12.43
2022-10-11T20:36:04.880Z,11.40
2022-10-11T20:38:32.412Z,11.40
2022-10-11T20:40:59.528Z,11.13
2022-10-11T20:43:29.887Z,12.07
2022-10-11T20:46:02.999Z,11.87
2022-10-11T20:48:30.649Z,11.37
2022-10-11T20:50:57.937Z,11.43
2022-10-11T20:53:25.185Z,11.27
2022-10-11T20:55:52.544Z,12.00
2022-10-11T20:58:20.078Z,10.63
2022-10-11T21:00:47.230Z,11.83
2022-10-11T21:03:14.316Z,11.27
2022-10-11T21:05:41.545Z,10.70
2022-10-11T21:08:08.689Z,12.43
2022-10-11T21:10:35.900Z,11.73
2022-10-11T21:13:03.048Z,12.40
2022-10-11T21:15:32.925Z,11.80
2022-10-11T21:18:00.015Z,12.40
2022-10-11T21:20:27.128Z,12.63
2022-10-11T21:22:54.191Z,12.70
2022-10-11T21:25:21.455Z,12.33
2022-10-11T21:27:48.511Z,12.90
2022-10-11T21:33:45.928Z,12.93
2022-10-11T21:36:13.874Z,12.27
2022-10-11T21:38:40.995Z,13.57
2022-10-11T21:41:12.214Z,12.67
2022-10-11T21:43:39.360Z,13.30
2022-10-11T21:46:13.293Z,14.30
2022-10-11T21:48:40.363Z,15.83
2022-10-11T21:51:07.669Z,14.53
2022-10-11T21:53:34.776Z,16.13
2022-10-11T21:56:01.889Z,15.50
2022-10-11T21:58:29.033Z,15.70
2022-10-11T22:00:56.185Z,14.43
2022-10-11T22:03:23.324Z,14.93
2022-10-11T22:05:50.482Z,13.47
2022-10-11T22:08:17.594Z,13.20
2022-10-11T22:10:45.058Z,16.20
2022-10-11T22:13:12.310Z,14.57
2022-10-11T22:15:39.714Z,16.10
2022-10-11T22:18:06.825Z,18.07
2022-10-11T22:20:34.103Z,15.43
2022-10-11T22:23:01.383Z,17.10
2022-10-11T22:25:28.564Z,16.53
2022-10-11T22:27:55.688Z,17.70
2022-10-11T22:30:22.762Z,18.00
2022-10-11T22:32:51.402Z,17.90
2022-10-11T22:35:18.777Z,18.17
2022-10-11T22:37:45.885Z,17.40
2022-10-11T22:40:12.983Z,16.60
2022-10-11T22:42:40.070Z,17.67
2022-10-11T22:45:07.331Z,17.37
2022-10-11T22:47:34.683Z,17.80
2022-10-11T22:50:01.923Z,18.63
2022-10-11T22:52:29.045Z,18.63
2022-10-11T22:54:56.131Z,16.90
2022-10-11T22:57:23.465Z,16.87
2022-10-11T22:59:50.535Z,18.30
2022-10-11T23:02:17.580Z,18.60
2022-10-11T23:04:44.659Z,16.20
2022-10-11T23:07:11.701Z,17.47
2022-10-11T23:09:38.907Z,17.83
2022-10-11T23:12:06.090Z,17.10
2022-10-11T23:14:33.117Z,18.00
2022-10-11T23:17:00.287Z,16.60
2022-10-11T23:19:27.338Z,18.27
2022-10-11T23:21:54.445Z,17.80
2022-10-11T23:24:21.600Z,17.67
2022-10-11T23:26:48.671Z,18.53
2022-10-11T23:29:15.813Z,16.13
2022-10-11T23:31:42.884Z,17.33
2022-10-11T23:34:10.053Z,16.87
2022-10-11T23:36:37.163Z,17.67
2022-10-11T23:39:04.261Z,18.60
2022-10-11T23:41:31.451Z,16.53
2022-10-11T23:43:58.599Z,18.37
2022-10-11T23:46:25.775Z,18.10
2022-10-11T23:48:52.991Z,19.10
2022-10-11T23:51:20.099Z,20.00
2022-10-11T23:53:47.234Z,19.77
2022-10-11T23:56:14.311Z,20.63
2022-10-11T23:58:41.470Z,22.17
